メインページ
METAR-TAF:

METAR-TAF

空港 :

オデッサ, ウクライナ

オデッサ国際空港

緯度: 46-26N, 経度: 030-46E, 海抜: 42m

現時点の気象観測

当レポートは10分前の10:30(UTC)に作成
変向風 4kt
気温 8°C
湿度 100%
気圧 1009 hPa
視程: 9000m
高度400ftの千切れ雲あり
高度6000ftの曇り

METAR: UKOO 191030Z VRB02MPS 9000 BKN004 OVC060 08/08 Q1009 R34/290054 NOSIG

時間: 12:40 (10:40 UTC)

予報

当レポートは5時間28分前の05:12(UTC)に作成
予報は19日の 06時(UTC)から 20日の 06時(UTC)まで有効
北東の風 6kt
視程: 1400m
高度400ftの千切れ雲あり
高度1500ftの雲は散在している, 積乱雲.
弱いにわか雨, 靄
19日の 06時(UTC)から 19日の 10時(UTC)まで一時的に
視程: 0300m
高度200ftの
19日の 10時(UTC)から 19日の 11時(UTC)まで徐々に
視程: 2100m
高度700ftの千切れ雲あり
高度1500ftの雲は散在している, 積乱雲.
19日の 18時(UTC)から 20日の 06時(UTC)まで一時的に
の風 14kt
視程: 1000m
高度300ftの千切れ雲あり
高度1500ftの千切れ雲あり, 積乱雲.
弱いにわか雨, 靄

TAF: UKOO 190512Z 1906/2006 04003MPS 1400 -SHRA BR BKN004 SCT015CB TEMPO 1906/1910 0300 FG VV002 BECMG 1910/1911 2100 BR BKN007 SCT015CB TEMPO 1918/2006 01007MPS 1000 -SHRA BR BKN003 BKN015CB TX10/1911Z TN02/2005Z

4,000以上の空港の気象観測と天気予報(METAR報とTAF報)

利用可能な観測所は地図上に黄色い丸と赤い丸で示す。

丸の上にカーソルを重ねると観測所名を参照できる。

次にクリックすると気象観測と天気予報を参照できる。

マップの切り替え:黒色「×」印の緑ボタンをクリックして拡大、「-」印の緑ボタンをクリックして縮小、緑色の三角印をクリックして隣りの地図に切り替え


METAR-TAF: